createdAt,value
2023-06-11T00:00:25.822Z,993.98
2023-06-11T00:01:25.864Z,994.07
2023-06-11T00:02:25.869Z,994.08
2023-06-11T00:03:26.943Z,994.08
2023-06-11T00:04:26.197Z,994.04
2023-06-11T00:05:25.812Z,994.08
2023-06-11T00:06:25.771Z,994.03
2023-06-11T00:07:25.786Z,994.02
2023-06-11T00:08:25.773Z,994.03
2023-06-11T00:09:25.793Z,994.10
2023-06-11T00:10:25.740Z,994.06
2023-06-11T00:11:25.735Z,994.07
2023-06-11T00:12:25.742Z,994.07
2023-06-11T00:13:25.745Z,994.05
2023-06-11T00:14:25.750Z,994.10
2023-06-11T00:15:25.751Z,994.10
2023-06-11T00:16:25.841Z,994.06
2023-06-11T00:17:25.730Z,994.09
2023-06-11T00:18:25.708Z,994.08
2023-06-11T00:19:25.754Z,994.12
2023-06-11T00:20:25.730Z,994.03
2023-06-11T00:21:25.707Z,994.12
2023-06-11T00:22:25.864Z,994.05
2023-06-11T00:23:25.681Z,994.09
2023-06-11T00:24:25.695Z,994.09
2023-06-11T00:25:25.673Z,994.11
2023-06-11T00:26:25.646Z,994.10
2023-06-11T00:27:25.639Z,994.11
2023-06-11T00:28:25.780Z,994.14
2023-06-11T00:29:25.647Z,994.12
2023-06-11T00:30:25.666Z,994.07
2023-06-11T00:31:25.693Z,994.08
2023-06-11T00:32:25.632Z,994.04
2023-06-11T00:33:25.626Z,994.03
2023-06-11T00:34:25.606Z,994.04
2023-06-11T00:35:25.630Z,994.10
2023-06-11T00:36:26.580Z,994.02
2023-06-11T00:37:25.597Z,994.05
2023-06-11T00:38:25.560Z,994.03
2023-06-11T00:39:25.593Z,994.06
2023-06-11T00:40:25.628Z,994.12
2023-06-11T00:41:25.589Z,994.10
2023-06-11T00:42:25.581Z,994.17
2023-06-11T00:43:25.556Z,994.14
2023-06-11T00:44:25.541Z,994.18
2023-06-11T00:45:25.574Z,994.17
2023-06-11T00:46:25.636Z,994.16
2023-06-11T00:47:25.538Z,994.06
2023-06-11T00:48:25.545Z,994.09
2023-06-11T00:49:25.526Z,994.14
2023-06-11T00:50:25.487Z,994.21
2023-06-11T00:51:25.488Z,994.16
2023-06-11T00:52:25.493Z,994.15
2023-06-11T00:53:25.490Z,994.19
2023-06-11T00:54:25.461Z,994.19
2023-06-11T00:55:25.449Z,994.21
2023-06-11T00:56:25.470Z,994.22
2023-06-11T00:57:25.465Z,994.25
2023-06-11T00:58:25.458Z,994.21
2023-06-11T00:59:25.436Z,994.31
2023-06-11T01:00:25.420Z,994.25
2023-06-11T01:01:25.577Z,994.28
2023-06-11T01:02:25.441Z,994.28
2023-06-11T01:03:25.406Z,994.26
2023-06-11T01:04:25.455Z,994.26
2023-06-11T01:05:25.532Z,994.27
2023-06-11T01:06:25.379Z,994.30
2023-06-11T01:07:25.356Z,994.34
2023-06-11T01:08:25.410Z,994.27
2023-06-11T01:09:25.363Z,994.28
2023-06-11T01:10:25.369Z,994.30
2023-06-11T01:11:25.379Z,994.30
2023-06-11T01:12:25.355Z,994.29
2023-06-11T01:13:25.365Z,994.31
2023-06-11T01:14:25.331Z,994.30
2023-06-11T01:15:25.331Z,994.32
2023-06-11T01:16:25.372Z,994.30
2023-06-11T01:17:25.392Z,994.31
2023-06-11T01:18:25.325Z,994.30
2023-06-11T01:19:25.305Z,994.32
2023-06-11T01:20:25.290Z,994.29
2023-06-11T01:21:25.305Z,994.34
2023-06-11T01:22:25.276Z,994.33
2023-06-11T01:23:25.306Z,994.28
2023-06-11T01:24:25.305Z,994.34
2023-06-11T01:25:25.282Z,994.32
2023-06-11T01:26:25.288Z,994.28
2023-06-11T01:27:25.269Z,994.32
2023-06-11T01:28:25.228Z,994.32
2023-06-11T01:29:25.266Z,994.29
2023-06-11T01:30:26.269Z,994.24
2023-06-11T01:31:25.256Z,994.25
2023-06-11T01:32:25.341Z,994.26
2023-06-11T01:33:25.258Z,994.22
2023-06-11T01:34:25.254Z,994.23
2023-06-11T01:35:25.257Z,994.26
2023-06-11T01:36:25.189Z,994.22
2023-06-11T01:37:25.192Z,994.24
2023-06-11T01:38:25.184Z,994.28
2023-06-11T01:39:25.185Z,994.26
2023-06-11T01:40:25.210Z,994.24
2023-06-11T01:41:25.164Z,994.25
2023-06-11T01:42:25.161Z,994.28
2023-06-11T01:43:25.189Z,994.29
2023-06-11T01:44:25.214Z,994.23
2023-06-11T01:45:25.177Z,994.24
2023-06-11T01:46:25.218Z,994.29
2023-06-11T01:47:25.171Z,994.30
2023-06-11T01:48:25.109Z,994.27
2023-06-11T01:49:26.089Z,994.30
2023-06-11T01:50:25.242Z,994.27
2023-06-11T01:51:25.125Z,994.27
2023-06-11T01:52:25.131Z,994.25
2023-06-11T01:53:25.088Z,994.28
2023-06-11T01:54:25.098Z,994.31
2023-06-11T01:55:25.096Z,994.27
2023-06-11T01:56:25.091Z,994.31
2023-06-11T01:57:25.063Z,994.29
2023-06-11T01:58:25.070Z,994.30
2023-06-11T01:59:25.056Z,994.29
2023-06-11T02:00:25.039Z,994.32
2023-06-11T02:01:25.109Z,994.33
2023-06-11T02:02:25.054Z,994.25
2023-06-11T02:03:25.094Z,994.25
2023-06-11T02:04:25.061Z,994.37
2023-06-11T02:05:25.169Z,994.35
2023-06-11T02:06:25.097Z,994.30
2023-06-11T02:07:25.090Z,994.33
2023-06-11T02:08:25.044Z,994.37
2023-06-11T02:09:25.073Z,994.36
2023-06-11T02:10:25.079Z,994.31
2023-06-11T02:11:25.173Z,994.32
2023-06-11T02:12:25.894Z,994.31
2023-06-11T02:13:25.134Z,994.30
2023-06-11T02:14:25.111Z,994.30
2023-06-11T02:15:25.076Z,994.27
2023-06-11T02:16:25.073Z,994.33
2023-06-11T02:17:25.091Z,994.32
2023-06-11T02:18:25.050Z,994.32
2023-06-11T02:19:25.036Z,994.31
2023-06-11T02:20:25.109Z,994.26
2023-06-11T02:21:24.977Z,994.32
2023-06-11T02:22:24.961Z,994.24
2023-06-11T02:23:25.021Z,994.26
2023-06-11T02:24:24.999Z,994.26
2023-06-11T02:25:24.932Z,994.23
2023-06-11T02:26:24.991Z,994.27
2023-06-11T02:27:24.873Z,994.31
2023-06-11T02:28:24.905Z,994.25
2023-06-11T02:29:24.964Z,994.26
2023-06-11T02:30:24.894Z,994.28
2023-06-11T02:31:24.958Z,994.24
2023-06-11T02:32:24.962Z,994.30
2023-06-11T02:33:24.942Z,994.24
2023-06-11T02:34:24.892Z,994.32
2023-06-11T02:35:24.996Z,994.30
2023-06-11T02:36:24.851Z,994.32
2023-06-11T02:37:24.844Z,994.27
2023-06-11T02:38:24.853Z,994.28
2023-06-11T02:39:24.888Z,994.29
2023-06-11T02:40:24.817Z,994.26
2023-06-11T02:41:24.990Z,994.25
2023-06-11T02:42:24.996Z,994.32
2023-06-11T02:43:24.869Z,994.26
2023-06-11T02:44:24.804Z,994.27
2023-06-11T02:45:24.955Z,994.30
2023-06-11T02:46:24.839Z,994.19
2023-06-11T02:47:25.958Z,994.29
2023-06-11T02:48:24.818Z,994.30
2023-06-11T02:49:24.783Z,994.29
2023-06-11T02:50:24.879Z,994.28
2023-06-11T02:51:24.871Z,994.29
2023-06-11T02:52:24.780Z,994.29
2023-06-11T02:53:24.867Z,994.29
2023-06-11T02:54:24.824Z,994.27
2023-06-11T02:55:24.777Z,994.28
2023-06-11T02:56:24.877Z,994.30
2023-06-11T02:57:24.766Z,994.29
2023-06-11T02:58:24.790Z,994.31
2023-06-11T02:59:24.691Z,994.33
2023-06-11T03:00:24.690Z,994.39
2023-06-11T03:01:24.876Z,994.32
2023-06-11T03:02:24.795Z,994.39
2023-06-11T03:03:24.779Z,994.39
2023-06-11T03:04:24.775Z,994.41
2023-06-11T03:05:24.777Z,994.39
2023-06-11T03:06:24.784Z,994.38
2023-06-11T03:07:24.653Z,994.39
2023-06-11T03:08:24.707Z,994.42
2023-06-11T03:09:24.741Z,994.39
2023-06-11T03:10:24.866Z,994.41
2023-06-11T03:11:24.719Z,994.37
2023-06-11T03:12:24.718Z,994.35
2023-06-11T03:13:24.731Z,994.41
2023-06-11T03:14:24.656Z,994.40
2023-06-11T03:15:24.609Z,994.41
2023-06-11T03:16:24.828Z,994.41
2023-06-11T03:17:24.758Z,994.40
2023-06-11T03:18:24.716Z,994.41
2023-06-11T03:19:24.670Z,994.44
2023-06-11T03:20:24.616Z,994.47
2023-06-11T03:21:24.708Z,994.45
2023-06-11T03:22:24.657Z,994.50
2023-06-11T03:23:24.659Z,994.51
2023-06-11T03:24:24.800Z,994.45
2023-06-11T03:25:24.610Z,994.47
2023-06-11T03:26:24.612Z,994.47
2023-06-11T03:27:24.574Z,994.49
2023-06-11T03:28:24.540Z,994.46
2023-06-11T03:29:24.517Z,994.42
2023-06-11T03:30:24.585Z,994.45
2023-06-11T03:31:24.744Z,994.49
2023-06-11T03:32:24.618Z,994.52
2023-06-11T03:33:24.639Z,994.47
2023-06-11T03:34:24.595Z,994.48
2023-06-11T03:35:24.503Z,994.48
2023-06-11T03:36:24.556Z,994.46
2023-06-11T03:37:24.469Z,994.52
2023-06-11T03:38:24.644Z,994.52
2023-06-11T03:39:24.525Z,994.48
2023-06-11T03:40:24.498Z,994.55
2023-06-11T03:41:24.565Z,994.58
2023-06-11T03:42:24.499Z,994.55
2023-06-11T03:43:24.421Z,994.61
2023-06-11T03:44:24.576Z,994.55
2023-06-11T03:45:24.449Z,994.54
2023-06-11T03:46:24.561Z,994.58
2023-06-11T03:47:24.411Z,994.53
2023-06-11T03:48:24.387Z,994.59
2023-06-11T03:49:24.514Z,994.55
2023-06-11T03:50:24.384Z,994.58
2023-06-11T03:51:24.422Z,994.55
2023-06-11T03:52:24.378Z,994.54
2023-06-11T03:53:24.381Z,994.60
2023-06-11T03:54:24.354Z,994.58
2023-06-11T03:55:24.357Z,994.56
2023-06-11T03:56:24.404Z,994.63
2023-06-11T03:57:24.360Z,994.63
2023-06-11T03:58:24.329Z,994.59
2023-06-11T03:59:24.333Z,994.66
2023-06-11T04:00:24.325Z,994.65
2023-06-11T04:01:24.327Z,994.64
2023-06-11T04:02:24.447Z,994.59
2023-06-11T04:03:24.459Z,994.66
2023-06-11T04:04:24.328Z,994.64
2023-06-11T04:05:24.336Z,994.67
2023-06-11T04:06:24.302Z,994.68
2023-06-11T04:07:24.288Z,994.66
2023-06-11T04:08:24.280Z,994.61
2023-06-11T04:09:24.414Z,994.67
2023-06-11T04:10:24.363Z,994.71
2023-06-11T04:11:24.299Z,994.66
2023-06-11T04:12:24.260Z,994.68
2023-06-11T04:13:24.251Z,994.70
2023-06-11T04:14:24.249Z,994.63
2023-06-11T04:15:24.230Z,994.70
2023-06-11T04:16:24.273Z,994.70
2023-06-11T04:17:24.377Z,994.68
2023-06-11T04:18:24.209Z,994.71
2023-06-11T04:19:24.227Z,994.69
2023-06-11T04:20:24.217Z,994.73
2023-06-11T04:21:24.231Z,994.72
2023-06-11T04:22:24.239Z,994.71
2023-06-11T04:23:24.198Z,994.76
2023-06-11T04:24:24.260Z,994.71
2023-06-11T04:25:24.170Z,994.69
2023-06-11T04:26:24.216Z,994.73
2023-06-11T04:27:24.166Z,994.73
2023-06-11T04:28:24.159Z,994.75
2023-06-11T04:29:24.184Z,994.73
2023-06-11T04:30:24.152Z,994.73
2023-06-11T04:31:24.153Z,994.69
2023-06-11T04:32:24.190Z,994.73
2023-06-11T04:33:24.128Z,994.73
2023-06-11T04:34:24.142Z,994.71
2023-06-11T04:35:24.108Z,994.70
2023-06-11T04:36:24.113Z,994.72
2023-06-11T04:37:24.116Z,994.72
2023-06-11T04:38:24.117Z,994.68
2023-06-11T04:39:24.119Z,994.72
2023-06-11T04:40:24.079Z,994.68
2023-06-11T04:41:24.081Z,994.70
2023-06-11T04:42:24.085Z,994.68
2023-06-11T04:43:24.062Z,994.66
2023-06-11T04:44:24.076Z,994.69
2023-06-11T04:45:24.049Z,994.69
2023-06-11T04:46:24.124Z,994.73
2023-06-11T04:47:24.185Z,994.68
2023-06-11T04:48:24.075Z,994.59
2023-06-11T04:49:24.052Z,994.57
2023-06-11T04:50:24.050Z,994.62
2023-06-11T04:51:24.016Z,994.70
2023-06-11T04:52:24.004Z,994.62
2023-06-11T04:53:24.006Z,994.64
2023-06-11T04:54:24.033Z,994.59
2023-06-11T04:55:24.014Z,994.68
2023-06-11T04:56:23.975Z,994.66
2023-06-11T04:57:23.968Z,994.65
2023-06-11T04:58:23.956Z,994.64
2023-06-11T04:59:24.001Z,994.63
2023-06-11T05:00:23.951Z,994.64
2023-06-11T05:01:24.031Z,994.58
2023-06-11T05:02:24.122Z,994.62
2023-06-11T05:03:23.927Z,994.61
2023-06-11T05:04:23.937Z,994.61
2023-06-11T05:05:23.966Z,994.64
2023-06-11T05:06:24.979Z,994.64
2023-06-11T05:07:23.951Z,994.64
2023-06-11T05:08:26.566Z,994.62
2023-06-11T05:09:23.887Z,994.57
2023-06-11T05:10:23.884Z,994.57
2023-06-11T05:11:25.387Z,994.57
2023-06-11T05:12:28.353Z,994.63
2023-06-11T05:13:24.016Z,994.54
2023-06-11T05:14:23.851Z,994.56
2023-06-11T05:15:23.858Z,994.55
2023-06-11T05:16:23.912Z,994.65
2023-06-11T05:17:23.955Z,994.60
2023-06-11T05:18:23.817Z,994.59
2023-06-11T05:19:23.838Z,994.64
2023-06-11T05:20:23.816Z,994.61
2023-06-11T05:21:23.822Z,994.62
2023-06-11T05:22:23.838Z,994.63
2023-06-11T05:23:23.816Z,994.64
2023-06-11T05:24:23.850Z,994.61
2023-06-11T05:25:23.824Z,994.70
2023-06-11T05:26:23.777Z,994.68
2023-06-11T05:27:23.836Z,994.70
2023-06-11T05:28:23.778Z,994.74
2023-06-11T05:29:23.783Z,994.74
2023-06-11T05:30:23.762Z,994.73
2023-06-11T05:31:23.824Z,994.70
2023-06-11T05:32:23.879Z,994.70
2023-06-11T05:33:23.835Z,994.70
2023-06-11T05:34:23.822Z,994.71
2023-06-11T05:35:23.717Z,994.70
2023-06-11T05:36:23.718Z,994.79
2023-06-11T05:37:23.692Z,994.66
2023-06-11T05:38:23.761Z,994.69
2023-06-11T05:39:23.752Z,994.72
2023-06-11T05:40:23.732Z,994.69
2023-06-11T05:41:23.659Z,994.74
2023-06-11T05:42:23.667Z,994.73
2023-06-11T05:43:23.694Z,994.71
2023-06-11T05:44:23.683Z,994.75
2023-06-11T05:45:23.642Z,994.76
2023-06-11T05:46:23.674Z,994.73
2023-06-11T05:47:23.708Z,994.75
2023-06-11T05:48:23.645Z,994.73
2023-06-11T05:49:23.660Z,994.75
2023-06-11T05:50:23.619Z,994.73
2023-06-11T05:51:23.595Z,994.68
2023-06-11T05:52:23.579Z,994.72
2023-06-11T05:53:23.636Z,994.78
2023-06-11T05:54:23.601Z,994.79
2023-06-11T05:55:23.592Z,994.76
2023-06-11T05:56:23.560Z,994.73
2023-06-11T05:57:23.570Z,994.78
2023-06-11T05:58:23.673Z,994.80
2023-06-11T05:59:23.554Z,994.77
2023-06-11T06:00:23.555Z,994.81
2023-06-11T06:01:23.551Z,994.80
2023-06-11T06:02:23.731Z,994.82
2023-06-11T06:03:23.688Z,994.75
2023-06-11T06:04:23.556Z,994.79
2023-06-11T06:05:23.529Z,994.79
2023-06-11T06:06:23.552Z,994.72
2023-06-11T06:07:23.561Z,994.75
2023-06-11T06:08:23.497Z,994.85
2023-06-11T06:09:23.500Z,994.82
2023-06-11T06:10:23.506Z,994.77
2023-06-11T06:11:23.464Z,994.76
2023-06-11T06:12:23.479Z,994.80
2023-06-11T06:13:23.476Z,994.80
2023-06-11T06:14:23.436Z,994.84
2023-06-11T06:15:23.473Z,994.82
2023-06-11T06:16:24.694Z,994.83
2023-06-11T06:17:23.465Z,994.87
2023-06-11T06:18:23.407Z,994.76
2023-06-11T06:19:23.424Z,994.81
2023-06-11T06:20:23.415Z,994.84
2023-06-11T06:21:23.429Z,994.81
2023-06-11T06:22:23.437Z,994.83
2023-06-11T06:23:23.389Z,994.82
2023-06-11T06:24:23.482Z,994.91
2023-06-11T06:25:23.375Z,994.88
2023-06-11T06:26:23.390Z,994.89
2023-06-11T06:27:23.364Z,994.91
2023-06-11T06:28:23.367Z,994.90
2023-06-11T06:29:24.407Z,994.96
2023-06-11T06:30:23.337Z,994.94
2023-06-11T06:31:23.803Z,994.92
2023-06-11T06:32:23.400Z,994.89
2023-06-11T06:33:23.373Z,994.91
2023-06-11T06:34:23.318Z,994.88
2023-06-11T06:35:23.369Z,994.89
2023-06-11T06:36:23.823Z,994.89
2023-06-11T06:37:23.304Z,994.93
2023-06-11T06:38:23.325Z,994.90
2023-06-11T06:39:23.299Z,994.91
2023-06-11T06:40:23.303Z,994.96
2023-06-11T06:41:23.290Z,994.91
2023-06-11T06:42:23.268Z,994.92
2023-06-11T06:43:23.272Z,994.91
2023-06-11T06:44:23.270Z,994.92
2023-06-11T06:45:23.280Z,994.95
2023-06-11T06:46:23.255Z,994.89
2023-06-11T06:47:23.333Z,994.89
2023-06-11T06:48:23.362Z,994.89
2023-06-11T06:49:23.230Z,994.90
2023-06-11T06:50:23.244Z,994.91
2023-06-11T06:51:23.236Z,994.91
2023-06-11T06:52:23.225Z,994.90
2023-06-11T06:53:23.209Z,994.92
2023-06-11T06:54:23.192Z,994.92
2023-06-11T06:55:23.207Z,994.93
2023-06-11T06:56:23.260Z,994.93
2023-06-11T06:57:23.189Z,994.97
2023-06-11T06:58:23.171Z,994.95
2023-06-11T06:59:23.167Z,994.91
2023-06-11T07:00:23.160Z,994.95
2023-06-11T07:01:23.193Z,994.91
2023-06-11T07:02:23.200Z,994.90
2023-06-11T07:03:23.124Z,994.86
2023-06-11T07:04:23.127Z,994.90
2023-06-11T07:05:23.131Z,994.92
2023-06-11T07:06:23.131Z,994.91
2023-06-11T07:07:23.096Z,994.92
2023-06-11T07:08:23.096Z,994.88
2023-06-11T07:09:23.083Z,994.95
2023-06-11T07:10:23.082Z,994.89
2023-06-11T07:11:23.174Z,994.88
2023-06-11T07:12:23.111Z,995.00
2023-06-11T07:13:23.081Z,994.92
2023-06-11T07:14:23.081Z,994.91
2023-06-11T07:15:23.065Z,995.05
2023-06-11T07:16:23.084Z,995.00
2023-06-11T07:17:23.075Z,994.97
2023-06-11T07:18:23.075Z,994.99
2023-06-11T07:19:23.057Z,995.01
2023-06-11T07:20:23.080Z,994.96
2023-06-11T07:21:23.883Z,995.00
2023-06-11T07:22:24.011Z,994.96
2023-06-11T07:23:23.181Z,995.05
2023-06-11T07:24:23.091Z,994.99
2023-06-11T07:25:23.017Z,995.03
2023-06-11T07:26:23.029Z,994.97
2023-06-11T07:27:22.984Z,995.00
2023-06-11T07:28:23.004Z,995.03
2023-06-11T07:29:22.997Z,995.02
2023-06-11T07:30:22.950Z,995.01
2023-06-11T07:31:23.015Z,995.04
2023-06-11T07:32:22.992Z,995.03
2023-06-11T07:33:22.994Z,995.04
2023-06-11T07:34:22.922Z,995.06
2023-06-11T07:35:22.943Z,995.11
2023-06-11T07:36:22.932Z,995.00
2023-06-11T07:37:22.920Z,995.01
2023-06-11T07:38:22.924Z,995.05
2023-06-11T07:39:22.910Z,995.03
2023-06-11T07:40:22.900Z,995.02
2023-06-11T07:41:22.909Z,995.00
2023-06-11T07:42:22.880Z,995.06
2023-06-11T07:43:22.874Z,995.01
2023-06-11T07:44:22.871Z,995.01
2023-06-11T07:45:23.301Z,994.96
2023-06-11T07:46:23.943Z,995.03
2023-06-11T07:47:22.872Z,995.00
2023-06-11T07:48:22.854Z,995.03
2023-06-11T07:49:22.845Z,994.94
2023-06-11T07:50:22.858Z,994.99
2023-06-11T07:51:22.873Z,994.93
2023-06-11T07:52:22.847Z,994.87
2023-06-11T07:53:22.832Z,994.91
2023-06-11T07:54:25.322Z,994.86
2023-06-11T07:55:23.791Z,994.91
2023-06-11T07:56:22.817Z,994.90
2023-06-11T07:57:22.853Z,994.89
2023-06-11T07:58:22.947Z,994.90
2023-06-11T07:59:22.870Z,994.87
2023-06-11T08:00:22.850Z,994.86
2023-06-11T08:01:22.810Z,994.85
2023-06-11T08:02:22.926Z,994.85
2023-06-11T08:03:22.776Z,994.88
2023-06-11T08:04:22.756Z,994.86
2023-06-11T08:05:22.799Z,994.92
2023-06-11T08:06:22.798Z,994.88
2023-06-11T08:07:22.778Z,994.89
2023-06-11T08:08:22.743Z,994.83
2023-06-11T08:09:22.736Z,994.87
2023-06-11T08:10:22.757Z,994.86
2023-06-11T08:11:22.775Z,994.83
2023-06-11T08:12:22.811Z,994.84
2023-06-11T08:13:22.942Z,994.84
2023-06-11T08:14:22.730Z,994.81
2023-06-11T08:15:22.705Z,994.81
2023-06-11T08:16:22.825Z,994.87
2023-06-11T08:17:22.799Z,994.86
2023-06-11T08:18:22.811Z,994.86
2023-06-11T08:19:22.672Z,994.85
2023-06-11T08:20:22.707Z,994.80
2023-06-11T08:21:22.654Z,994.83
2023-06-11T08:22:22.668Z,994.84
2023-06-11T08:23:22.705Z,994.83
2023-06-11T08:24:22.831Z,994.77
2023-06-11T08:25:22.638Z,994.85
2023-06-11T08:26:22.714Z,994.78
2023-06-11T08:27:22.639Z,994.71
2023-06-11T08:28:22.616Z,994.73
2023-06-11T08:29:22.712Z,994.69
2023-06-11T08:30:22.668Z,994.72
2023-06-11T08:31:22.616Z,994.73
2023-06-11T08:32:22.779Z,994.73
2023-06-11T08:33:23.309Z,994.74
2023-06-11T08:34:22.630Z,994.70
2023-06-11T08:35:22.583Z,994.71
2023-06-11T08:36:22.619Z,994.65
2023-06-11T08:37:22.590Z,994.69
2023-06-11T08:38:22.609Z,994.71
2023-06-11T08:39:22.585Z,994.73
2023-06-11T08:40:22.674Z,994.73
2023-06-11T08:41:22.537Z,994.66
2023-06-11T08:42:22.547Z,994.60
2023-06-11T08:43:22.560Z,994.64
2023-06-11T08:44:24.780Z,994.61
2023-06-11T08:45:22.523Z,994.64
2023-06-11T08:46:22.573Z,994.65
2023-06-11T08:47:22.617Z,994.60
2023-06-11T08:48:22.575Z,994.60
2023-06-11T08:49:22.566Z,994.60
2023-06-11T08:50:22.722Z,994.67
2023-06-11T08:51:22.498Z,994.58
2023-06-11T08:52:22.471Z,994.59
2023-06-11T08:53:22.556Z,994.64
2023-06-11T08:54:22.501Z,994.63
2023-06-11T08:55:22.483Z,994.59
2023-06-11T08:56:22.477Z,994.53
2023-06-11T08:57:22.478Z,994.59
2023-06-11T08:58:22.469Z,994.61
2023-06-11T08:59:22.459Z,994.63
2023-06-11T09:00:22.459Z,994.62
2023-06-11T09:01:22.464Z,994.63
2023-06-11T09:02:22.568Z,994.60
2023-06-11T09:03:22.431Z,994.52
2023-06-11T09:04:22.480Z,994.56
2023-06-11T09:05:22.429Z,994.60
2023-06-11T09:06:22.398Z,994.60
2023-06-11T09:07:22.434Z,994.53
2023-06-11T09:08:22.408Z,994.50
2023-06-11T09:09:22.405Z,994.56
2023-06-11T09:10:22.532Z,994.55
2023-06-11T09:11:22.379Z,994.62
2023-06-11T09:12:22.388Z,994.59
2023-06-11T09:13:22.397Z,994.58
2023-06-11T09:14:22.354Z,994.57
2023-06-11T09:15:22.379Z,994.55
2023-06-11T09:16:22.391Z,994.59
2023-06-11T09:17:22.379Z,994.54
2023-06-11T09:18:23.365Z,994.61
2023-06-11T09:19:22.338Z,994.54
2023-06-11T09:20:22.325Z,994.56
2023-06-11T09:21:22.320Z,994.53
2023-06-11T09:22:22.303Z,994.60
2023-06-11T09:23:23.299Z,994.52
2023-06-11T09:24:22.718Z,994.53
2023-06-11T09:25:22.321Z,994.58
2023-06-11T09:26:22.414Z,994.56
2023-06-11T09:27:23.596Z,994.63
2023-06-11T09:28:22.435Z,994.51
2023-06-11T09:29:22.271Z,994.47
2023-06-11T09:30:22.421Z,994.48
2023-06-11T09:31:23.450Z,994.52
2023-06-11T09:33:23.305Z,994.51
2023-06-11T09:34:22.901Z,994.52
2023-06-11T09:35:22.852Z,994.51
2023-06-11T09:36:22.236Z,994.46
2023-06-11T09:37:22.218Z,994.46
2023-06-11T09:38:22.218Z,994.57
2023-06-11T09:39:22.199Z,994.55
2023-06-11T09:40:22.251Z,994.53
2023-06-11T09:41:22.197Z,994.64
2023-06-11T09:42:22.243Z,994.56
2023-06-11T09:43:22.214Z,994.55
2023-06-11T09:44:22.178Z,994.49
2023-06-11T09:45:22.349Z,994.47
2023-06-11T09:46:22.246Z,994.48
2023-06-11T09:47:22.158Z,994.46
2023-06-11T09:48:22.175Z,994.52
2023-06-11T09:49:22.140Z,994.57
2023-06-11T09:50:22.149Z,994.60
2023-06-11T09:51:22.148Z,994.55
2023-06-11T09:52:23.119Z,994.56
2023-06-11T09:53:22.184Z,994.54
2023-06-11T09:54:22.184Z,994.59
2023-06-11T09:55:22.981Z,994.47
2023-06-11T09:56:22.087Z,994.53
2023-06-11T09:57:22.101Z,994.56
2023-06-11T09:58:22.120Z,994.46
2023-06-11T09:59:22.105Z,994.52
2023-06-11T10:00:22.172Z,994.50
2023-06-11T10:01:22.082Z,994.49
2023-06-11T10:02:22.190Z,994.59
2023-06-11T10:03:22.117Z,994.51
2023-06-11T10:04:22.087Z,994.58
2023-06-11T10:05:22.071Z,994.50
2023-06-11T10:06:22.062Z,994.45
2023-06-11T10:07:22.063Z,994.57
2023-06-11T10:08:22.048Z,994.57
2023-06-11T10:09:22.040Z,994.55
2023-06-11T10:10:22.066Z,994.56
2023-06-11T10:11:22.037Z,994.50
2023-06-11T10:12:22.047Z,994.55
2023-06-11T10:13:22.166Z,994.52
2023-06-11T10:14:21.995Z,994.58
2023-06-11T10:15:21.978Z,994.55
2023-06-11T10:16:22.020Z,994.54
2023-06-11T10:17:22.097Z,994.59
2023-06-11T10:18:21.970Z,994.53
2023-06-11T10:19:22.908Z,994.55
2023-06-11T10:20:21.976Z,994.58
2023-06-11T10:21:21.951Z,994.49
2023-06-11T10:22:21.994Z,994.51
2023-06-11T10:23:21.965Z,994.53
2023-06-11T10:24:22.019Z,994.55
2023-06-11T10:25:21.939Z,994.50
2023-06-11T10:26:21.960Z,994.58
2023-06-11T10:27:22.006Z,994.57
2023-06-11T10:28:23.149Z,994.47
2023-06-11T10:29:22.923Z,994.52
2023-06-11T10:30:23.758Z,994.52
2023-06-11T10:31:23.185Z,994.51
2023-06-11T10:32:22.359Z,994.54
2023-06-11T10:33:22.923Z,994.55
2023-06-11T10:34:22.108Z,994.47
2023-06-11T10:35:21.938Z,994.51
2023-06-11T10:36:21.872Z,994.63
2023-06-11T10:37:21.863Z,994.42
2023-06-11T10:38:21.847Z,994.56
2023-06-11T10:39:21.915Z,994.52
2023-06-11T10:40:21.933Z,994.47
2023-06-11T10:41:21.823Z,994.57
2023-06-11T10:42:21.867Z,994.56
2023-06-11T10:43:21.828Z,994.54
2023-06-11T10:44:21.842Z,994.50
2023-06-11T10:45:21.804Z,994.51
2023-06-11T10:46:21.881Z,994.46
2023-06-11T10:47:21.896Z,994.56
2023-06-11T10:48:21.805Z,994.57
2023-06-11T10:49:21.791Z,994.35
2023-06-11T10:50:22.821Z,994.53
2023-06-11T10:51:21.797Z,994.56
2023-06-11T10:52:21.808Z,994.51
2023-06-11T10:53:21.795Z,994.55
2023-06-11T10:54:21.767Z,994.61
2023-06-11T10:55:21.862Z,994.56
2023-06-11T10:56:21.728Z,994.55
2023-06-11T10:57:21.781Z,994.54
2023-06-11T10:58:21.827Z,994.58
2023-06-11T10:59:21.731Z,994.57
2023-06-11T11:00:21.777Z,994.61
2023-06-11T11:01:21.759Z,994.53
2023-06-11T11:02:21.773Z,994.57
2023-06-11T11:03:21.857Z,994.56
2023-06-11T11:04:21.750Z,994.58
2023-06-11T11:05:21.742Z,994.56
2023-06-11T11:06:21.680Z,994.50
2023-06-11T11:07:21.692Z,994.58
2023-06-11T11:08:23.961Z,994.43
2023-06-11T11:09:22.686Z,994.55
2023-06-11T11:10:21.642Z,994.53
2023-06-11T11:11:21.652Z,994.55
2023-06-11T11:12:21.683Z,994.54
2023-06-11T11:13:21.631Z,994.62
2023-06-11T11:14:21.658Z,994.58
2023-06-11T11:15:21.620Z,994.54
2023-06-11T11:16:21.749Z,994.60
2023-06-11T11:17:21.691Z,994.54
2023-06-11T11:18:21.637Z,994.51
2023-06-11T11:19:21.644Z,994.50
2023-06-11T11:20:21.620Z,994.51
2023-06-11T11:21:21.595Z,994.51
2023-06-11T11:22:21.632Z,994.51
2023-06-11T11:23:21.593Z,994.47
2023-06-11T11:24:21.722Z,994.51
2023-06-11T11:25:21.551Z,994.49
2023-06-11T11:26:21.556Z,994.49
2023-06-11T11:27:21.604Z,994.49
2023-06-11T11:28:21.620Z,994.54
2023-06-11T11:29:21.547Z,994.59
2023-06-11T11:30:22.561Z,994.54
2023-06-11T11:31:21.557Z,994.57
2023-06-11T11:32:21.577Z,994.58
2023-06-11T11:33:21.552Z,994.52
2023-06-11T11:34:21.549Z,994.48
2023-06-11T11:35:21.534Z,994.53
2023-06-11T11:36:21.553Z,994.47
2023-06-11T11:37:21.501Z,994.58
2023-06-11T11:38:21.509Z,994.46
2023-06-11T11:39:21.503Z,994.49
2023-06-11T11:40:21.542Z,994.48
2023-06-11T11:41:21.476Z,994.45
2023-06-11T11:42:21.466Z,994.52
2023-06-11T11:43:21.499Z,994.36
2023-06-11T11:44:21.497Z,994.42
2023-06-11T11:45:21.478Z,994.53
2023-06-11T11:46:21.487Z,994.44
2023-06-11T11:47:21.467Z,994.56
2023-06-11T11:48:21.491Z,994.41
2023-06-11T11:49:21.435Z,994.44
2023-06-11T11:50:21.804Z,994.43
2023-06-11T11:51:21.415Z,994.42
2023-06-11T11:52:21.439Z,994.40
2023-06-11T11:53:21.487Z,994.47
2023-06-11T11:54:21.443Z,994.47
2023-06-11T11:55:21.405Z,994.45
2023-06-11T11:56:21.414Z,994.42
2023-06-11T11:57:21.434Z,994.33
2023-06-11T11:58:21.395Z,994.38
2023-06-11T11:59:21.360Z,994.43
2023-06-11T12:00:21.382Z,994.30
2023-06-11T12:01:21.360Z,994.30
2023-06-11T12:02:21.478Z,994.36
2023-06-11T12:03:21.437Z,994.35
2023-06-11T12:04:21.340Z,994.30
2023-06-11T12:05:21.349Z,994.29
2023-06-11T12:06:21.526Z,994.33
2023-06-11T12:07:21.381Z,994.33
2023-06-11T12:08:21.322Z,994.27
2023-06-11T12:09:21.315Z,994.26
2023-06-11T12:10:21.300Z,994.27
2023-06-11T12:11:21.310Z,994.26
2023-06-11T12:12:21.352Z,994.23
2023-06-11T12:13:21.278Z,994.18
2023-06-11T12:14:21.358Z,994.21
2023-06-11T12:15:21.266Z,994.19
2023-06-11T12:16:21.297Z,994.16
2023-06-11T12:17:21.289Z,994.13
2023-06-11T12:18:21.322Z,994.16
2023-06-11T12:19:24.398Z,994.18
2023-06-11T12:20:22.252Z,994.13
2023-06-11T12:21:21.260Z,994.19
2023-06-11T12:22:21.235Z,994.15
2023-06-11T12:23:21.279Z,994.12
2023-06-11T12:24:21.319Z,994.16
2023-06-11T12:25:21.229Z,994.16
2023-06-11T12:26:21.671Z,994.23
2023-06-11T12:27:21.204Z,994.15
2023-06-11T12:28:21.205Z,994.16
2023-06-11T12:29:21.266Z,994.21